FMMI/TNR METAR and TAF weather

Enter ICAO airport designator
Station Type Date Time Source
FMMI METAR 2021/09/24 00:00 UTC NOAA

FMMI 240000Z 13006KT 110V170 9999 SCT017 13/09 Q1024 NOSIG


Station Type Date Time Source
FMMI Decoded METAR 2021/09/24 00:00 UTC NOAA

Antananarivo / Ivato, Madagascar (FMMI) 18-48S 047-29E 1276M
Sep 23, 2021 - 08:00 PM EDT / 2021.09.24 0000 UTC
Wind: from the SE (130 degrees) at 7 MPH (6 KT) (direction variable):0
Visibility: greater than 7 mile(s):0
Sky conditions: partly cloudy
Temperature: 55 F (13 C)
Dew Point: 48 F (9 C)
Relative Humidity: 76%
Pressure (altimeter): 30.24 in. Hg (1024 hPa)
ob: FMMI 240000Z 13006KT 110V170 9999 SCT017 13/09 Q1024 NOSIG
cycle: 0

Station Type Date Time Source
FMMI TAF 2021/09/23 18:27 UTC NOAA

FMMI 231700Z 2318/2424 14010KT 9999 FEW017 SCT020

Example: see airport list